Time;durP1;ratioP1;P1;durP2;ratioP2;P2;SDS_P1;SDS_P2;PMS_P1;PMS_P2;Temp;Humidity;BMP_temperature;BMP_pressure;BME280_temperature;BME280_humidity;BME280_pressure;Samples;Min_cycle;Max_cycle;Signal;HPM_P1;HPM_P2
2022/04/30 00:01:36;;;;;;;;;16.60;15.00;;;;;12.96;43.16;99576.81;6262137;27;99518;-73
2022/04/30 00:04:41;;;;;;;;;18.00;16.00;;;;;12.84;43.28;99565.06;6308419;27;97934;-74
2022/04/30 00:07:46;;;;;;;;;19.75;18.00;;;;;12.96;43.17;99578.69;6288964;27;98030;-75
2022/04/30 00:10:50;;;;;;;;;18.80;18.00;;;;;12.94;43.68;99580.81;6270589;27;96456;-74
2022/04/30 00:13:53;;;;;;;;;20.00;17.40;;;;;12.93;43.57;99579.97;6269376;27;98422;-74
2022/04/30 00:16:57;;;;;;;;;15.33;15.00;;;;;12.93;43.41;99588.09;6258139;27;97861;-73
2022/04/30 00:20:03;;;;;;;;;18.20;16.20;;;;;12.92;43.70;99580.19;6300408;27;97425;-74
2022/04/30 00:23:19;;;;;;;;;17.75;16.25;;;;;12.92;43.56;99581.00;6313367;27;96521;-74
2022/04/30 00:26:22;;;;;;;;;20.00;16.00;;;;;12.83;43.82;99578.81;6270698;27;96476;-73
2022/04/30 00:29:26;;;;;;;;;17.00;16.00;;;;;12.53;43.92;99556.94;6270618;27;96416;-74
2022/04/30 00:32:31;;;;;;;;;18.00;16.00;;;;;12.50;43.99;99571.75;6252700;27;99646;-72
2022/04/30 00:35:34;;;;;;;;;17.60;14.60;;;;;12.44;44.43;99583.44;6291437;27;96800;-74
2022/04/30 00:38:39;;;;;;;;;17.80;16.80;;;;;12.38;44.55;99578.03;6277875;27;99073;-73
2022/04/30 00:41:44;;;;;;;;;16.80;16.20;;;;;12.31;44.42;99578.09;6312982;27;97753;-73
2022/04/30 00:44:49;;;;;;;;;19.00;18.00;;;;;12.21;44.73;99571.50;6294520;27;96916;-73
2022/04/30 00:47:53;;;;;;;;;19.00;18.00;;;;;12.11;44.71;99574.66;6312970;27;97474;-75
2022/04/30 00:50:57;;;;;;;;;18.20;16.00;;;;;12.01;45.21;99572.41;6277408;27;99886;-73
2022/04/30 00:54:05;;;;;;;;;20.60;18.60;;;;;11.95;45.31;99572.44;6312573;27;97135;-72
2022/04/30 00:57:11;;;;;;;;;19.00;17.40;;;;;11.87;45.31;99562.72;6313256;27;97091;-74
2022/04/30 01:00:15;;;;;;;;;21.40;19.40;;;;;11.81;45.41;99573.53;6313285;27;96780;-73
2022/04/30 01:03:36;;;;;;;;;22.25;20.00;;;;;11.64;45.49;99563.13;6294272;27;96423;-74
2022/04/30 01:06:50;;;;;;;;;21.80;20.00;;;;;11.67;45.58;99572.72;6294205;27;96872;-73
2022/04/30 01:09:55;;;;;;;;;24.40;22.00;;;;;11.31;45.53;99543.50;6313175;27;97596;-73
2022/04/30 01:12:58;;;;;;;;;23.40;21.40;;;;;11.54;45.64;99570.84;6312747;27;98192;-73
2022/04/30 01:16:03;;;;;;;;;26.00;25.00;;;;;11.60;45.69;99577.28;6294371;27;98513;-74
2022/04/30 01:19:08;;;;;;;;;26.00;24.25;;;;;11.64;45.36;99571.25;6276671;27;96433;-73
2022/04/30 01:22:21;;;;;;;;;27.00;24.00;;;;;11.66;45.62;99571.88;6312792;27;96346;-73
2022/04/30 01:25:26;;;;;;;;;26.00;25.00;;;;;11.09;45.52;99486.22;6315953;27;96431;-73
2022/04/30 01:28:30;;;;;;;;;25.60;23.00;;;;;11.61;45.51;99568.16;6298969;27;98574;-74
2022/04/30 01:38:17;;;;;;;;;26.80;25.00;;;;;11.60;45.34;99563.78;6280817;27;98182;-72
2022/04/30 01:41:22;;;;;;;;;25.20;23.00;;;;;11.54;45.44;99570.03;6297977;27;97539;-72
2022/04/30 01:44:25;;;;;;;;;31.20;27.80;;;;;11.53;45.47;99569.19;6298759;27;96263;-72
2022/04/30 01:47:30;;;;;;;;;27.80;25.80;;;;;11.54;45.35;99572.72;6272688;27;97148;-72
2022/04/30 01:50:34;;;;;;;;;30.50;26.50;;;;;11.60;45.40;99569.19;6291035;27;96727;-73
2022/04/30 01:53:40;;;;;;;;;29.00;25.60;;;;;11.60;45.42;99569.19;6289420;27;97147;-72
2022/04/30 01:56:45;;;;;;;;;29.00;27.00;;;;;11.54;45.47;99565.44;6291210;27;96837;-74
2022/04/30 01:59:53;;;;;;;;;27.00;25.00;;;;;11.49;45.51;99557.16;6272888;27;97367;-72
2022/04/30 02:03:12;;;;;;;;;29.40;26.40;;;;;11.49;45.56;99554.44;6290807;27;97470;-73
2022/04/30 02:06:16;;;;;;;;;28.20;23.20;;;;;11.51;45.31;99559.66;6291027;27;98000;-73
2022/04/30 02:09:21;;;;;;;;;27.00;23.00;;;;;11.49;45.35;99557.16;6272281;27;98410;-74
2022/04/30 02:12:29;;;;;;;;;27.00;24.50;;;;;11.27;45.46;99520.66;6291475;27;97154;-74
2022/04/30 02:15:33;;;;;;;;;25.00;23.00;;;;;11.30;45.51;99552.63;6316256;27;97509;-73
2022/04/30 02:18:37;;;;;;;;;27.33;25.00;;;;;11.18;45.72;99530.84;6314964;27;97414;-72
2022/04/30 02:21:42;;;;;;;;;25.60;24.60;;;;;11.29;45.84;99537.47;6295201;27;99080;-72
2022/04/30 02:24:46;;;;;;;;;29.20;26.20;;;;;11.26;45.91;99536.03;6315006;27;96915;-73
2022/04/30 02:27:53;;;;;;;;;29.00;28.00;;;;;11.25;45.65;99528.97;6295741;27;98906;-73
2022/04/30 02:30:57;;;;;;;;;31.00;27.00;;;;;11.27;45.93;99524.19;6314490;27;96629;-75
2022/04/30 02:34:01;;;;;;;;;27.60;25.00;;;;;11.27;45.57;99528.75;6295875;27;97215;-74
2022/04/30 02:37:04;;;;;;;;;28.00;25.00;;;;;11.25;45.57;99541.63;6314426;27;96528;-72
2022/04/30 02:40:09;;;;;;;;;25.60;23.00;;;;;11.25;45.32;99528.13;6293690;27;97879;-73
2022/04/30 02:43:16;;;;;;;;;24.00;23.00;;;;;11.20;45.43;99526.06;6270730;27;97447;-73
2022/04/30 02:46:20;;;;;;;;;25.40;23.40;;;;;11.10;45.23;99525.66;6269248;27;96688;-74
2022/04/30 02:49:24;;;;;;;;;22.00;21.00;;;;;10.99;45.48;99523.63;6288420;27;96396;-74
2022/04/30 02:52:28;;;;;;;;;27.00;24.60;;;;;10.90;45.15;99524.03;6270647;27;97429;-74
2022/04/30 02:55:31;;;;;;;;;24.20;22.80;;;;;10.80;45.84;99521.72;6270039;27;96519;-72
2022/04/30 03:01:57;;;;;;;;;27.80;24.20;;;;;10.76;46.05;99521.31;6269979;27;96942;-73
2022/04/30 03:05:16;;;;;;;;;27.40;24.40;;;;;10.74;45.92;99515.31;6261740;27;98986;-74
2022/04/30 03:08:22;;;;;;;;;25.75;22.75;;;;;10.69;45.99;99516.97;6275606;27;99654;-73
2022/04/30 03:11:25;;;;;;;;;26.80;22.80;;;;;10.61;46.12;99523.38;6293701;27;96987;-73
2022/04/30 03:14:30;;;;;;;;;23.00;22.00;;;;;10.59;46.33;99520.09;6294217;27;97424;-72
2022/04/30 03:24:16;;;;;;;;;26.00;24.00;;;;;10.49;46.01;99514.25;6314543;27;96744;-72
2022/04/30 03:27:19;;;;;;;;;25.40;21.80;;;;;10.43;46.11;99529.41;6314285;27;97764;-72
2022/04/30 03:30:24;;;;;;;;;24.00;21.00;;;;;10.35;46.29;99526.06;6314878;27;97449;-73
2022/04/30 03:33:28;;;;;;;;;23.60;21.20;;;;;10.35;46.32;99526.06;6295409;27;96717;-73
2022/04/30 03:36:31;;;;;;;;;26.25;23.00;;;;;10.37;46.04;99523.97;6313991;27;97354;-73
2022/04/30 03:39:35;;;;;;;;;22.60;21.00;;;;;10.41;46.03;99527.91;6314451;27;96643;-73
2022/04/30 03:42:38;;;;;;;;;23.00;22.00;;;;;10.41;45.96;99520.66;6295023;27;98078;-73
2022/04/30 03:45:43;;;;;;;;;26.25;22.25;;;;;10.14;46.25;99501.94;6295093;27;99596;-73
2022/04/30 03:48:53;;;;;;;;;27.25;24.00;;;;;10.30;46.32;99529.38;6313021;27;96786;-73
2022/04/30 03:51:56;;;;;;;;;24.00;21.50;;;;;10.32;46.34;99524.59;6294071;27;96919;-74
2022/04/30 03:55:00;;;;;;;;;24.25;21.25;;;;;10.39;46.15;99520.06;6312974;27;96790;-73
2022/04/30 03:58:06;;;;;;;;;29.40;25.00;;;;;10.38;46.11;99518.41;6312593;27;97400;-73
2022/04/30 04:01:13;;;;;;;;;22.00;21.00;;;;;10.52;46.17;99523.78;6288161;27;96788;-74
2022/04/30 04:04:17;;;;;;;;;26.00;25.00;;;;;10.53;46.35;99523.59;6288586;27;96866;-73
2022/04/30 04:07:20;;;;;;;;;24.40;22.40;;;;;10.60;46.25;99524.44;6286974;27;96543;-74
2022/04/30 04:10:24;;;;;;;;;23.00;22.20;;;;;10.62;46.54;99521.53;6269467;27;98532;-75
2022/04/30 04:20:13;;;;;;;;;24.60;23.20;;;;;11.35;45.58;99517.72;6288522;27;96975;-73
2022/04/30 04:23:16;;;;;;;;;28.00;25.00;;;;;11.64;45.14;99522.63;6292899;27;98502;-74
2022/04/30 04:26:19;;;;;;;;;26.00;23.00;;;;;11.89;44.61;99525.47;6294667;27;97074;-74
2022/04/30 04:29:22;;;;;;;;;27.00;26.00;;;;;11.92;44.81;99497.22;6313579;27;96598;-73
2022/04/30 04:32:27;;;;;;;;;25.60;22.00;;;;;12.26;44.75;99523.84;6294390;27;97125;-73
2022/04/30 04:35:31;;;;;;;;;24.60;22.60;;;;;12.31;44.34;99501.56;6295134;27;97537;-75
2022/04/30 04:38:35;;;;;;;;;27.00;25.00;;;;;12.63;44.04;99527.53;6312798;27;96764;-75
2022/04/30 04:41:39;;;;;;;;;25.00;24.00;;;;;12.79;43.48;99521.59;6313180;27;97542;-74
2022/04/30 04:44:45;;;;;;;;;27.00;24.40;;;;;13.12;43.09;99526.75;6294694;27;98407;-74
2022/04/30 04:47:51;;;;;;;;;27.00;23.00;;;;;13.40;42.47;99528.97;6277490;27;97002;-74
2022/04/30 04:50:54;;;;;;;;;25.40;24.40;;;;;13.65;41.77;99526.19;6294533;27;98302;-74
2022/04/30 04:53:58;;;;;;;;;27.60;25.00;;;;;13.86;41.09;99528.44;6294590;27;97236;-74
2022/04/30 04:57:01;;;;;;;;;28.00;26.40;;;;;14.08;40.76;99532.31;6294492;27;98403;-74
2022/04/30 05:00:06;;;;;;;;;28.00;26.00;;;;;14.23;40.00;99523.78;6312518;27;96966;-74
2022/04/30 05:03:12;;;;;;;;;27.60;24.00;;;;;14.49;39.03;99523.44;6312679;27;96987;-74
2022/04/30 05:06:16;;;;;;;;;24.20;22.80;;;;;14.70;38.78;99530.22;6312812;27;97468;-75
2022/04/30 05:09:19;;;;;;;;;26.40;26.40;;;;;14.91;38.59;99528.81;6294694;27;96273;-74
2022/04/30 05:12:22;;;;;;;;;28.50;26.25;;;;;15.09;39.26;99536.91;6313070;27;97504;-74
2022/04/30 05:15:26;;;;;;;;;34.00;27.60;;;;;15.21;39.20;99534.16;6294121;27;96541;-74
2022/04/30 05:18:31;;;;;;;;;27.40;25.60;;;;;15.30;38.71;99528.16;6294174;27;96578;-74
2022/04/30 05:21:34;;;;;;;;;29.50;27.50;;;;;15.41;37.87;99538.19;6293069;27;97077;-74
2022/04/30 05:24:37;;;;;;;;;27.00;25.00;;;;;15.54;37.25;99539.88;6312689;27;97488;-75
2022/04/30 05:27:40;;;;;;;;;29.25;26.25;;;;;15.79;36.58;99543.13;6276714;27;100230;-75
2022/04/30 05:30:44;;;;;;;;;27.00;24.75;;;;;15.95;36.17;99528.78;6312247;27;96853;-74
2022/04/30 05:33:48;;;;;;;;;28.20;26.00;;;;;16.23;35.86;99530.69;6293630;27;97176;-74
2022/04/30 05:36:52;;;;;;;;;28.00;26.80;;;;;16.48;35.70;99524.91;6276513;27;96837;-75
2022/04/30 05:39:55;;;;;;;;;27.20;24.20;;;;;16.77;35.31;99526.56;6293053;27;97055;-74
2022/04/30 05:42:59;;;;;;;;;25.00;22.40;;;;;16.73;34.59;99530.03;6276306;27;96500;-74
2022/04/30 05:46:02;;;;;;;;;25.60;23.00;;;;;16.84;34.67;99529.13;6292823;27;99983;-75
2022/04/30 05:49:07;;;;;;;;;27.00;26.00;;;;;17.02;34.67;99523.44;6310986;27;97032;-74
2022/04/30 05:52:11;;;;;;;;;27.00;24.00;;;;;17.21;34.07;99529.44;6275521;27;98432;-75
2022/04/30 05:55:15;;;;;;;;;27.20;24.20;;;;;17.44;33.79;99525.72;6283795;27;98722;-74
2022/04/30 05:58:19;;;;;;;;;28.40;25.40;;;;;17.64;33.45;99523.31;6302795;27;97461;-74
2022/04/30 06:01:22;;;;;;;;;28.00;25.00;;;;;17.84;33.03;99528.22;6291318;27;96624;-74
2022/04/30 06:04:28;;;;;;;;;24.80;22.00;;;;;17.99;32.20;99531.94;6288184;27;97536;-75
2022/04/30 06:07:31;;;;;;;;;27.75;26.00;;;;;18.07;32.31;99531.50;6274961;27;97834;-74
2022/04/30 06:10:35;;;;;;;;;24.00;22.00;;;;;18.21;32.61;99537.38;6294635;27;96994;-74
2022/04/30 06:13:39;;;;;;;;;27.40;23.60;;;;;18.27;32.47;99511.81;6297600;27;97297;-74
2022/04/30 06:16:42;;;;;;;;;23.75;22.00;;;;;18.57;31.73;99533.97;6313502;27;98334;-74
2022/04/30 06:19:47;;;;;;;;;25.40;24.40;;;;;18.72;31.59;99537.94;6295272;27;98495;-74
2022/04/30 06:22:50;;;;;;;;;28.40;24.00;;;;;18.85;31.25;99524.69;6294159;27;97619;-74
2022/04/30 06:25:54;;;;;;;;;26.00;24.40;;;;;19.01;30.99;99531.91;6292481;27;98049;-74
2022/04/30 06:28:58;;;;;;;;;24.40;22.40;;;;;19.19;31.69;99533.44;6275532;27;96442;-74
2022/04/30 06:32:01;;;;;;;;;27.00;23.40;;;;;19.48;31.44;99527.66;6312077;27;97349;-75
2022/04/30 06:35:06;;;;;;;;;25.00;23.40;;;;;19.58;31.43;99509.38;6311500;27;97131;-73
2022/04/30 06:38:11;;;;;;;;;26.00;23.50;;;;;20.01;30.72;99532.03;6287303;27;97940;-74
2022/04/30 06:41:14;;;;;;;;;24.67;22.67;;;;;19.98;29.59;99519.72;6288452;27;97549;-74
2022/04/30 06:44:17;;;;;;;;;23.40;21.00;;;;;20.30;28.84;99527.75;6300274;27;97379;-74
2022/04/30 06:47:21;;;;;;;;;24.00;22.00;;;;;20.58;29.61;99535.50;6295488;27;96964;-75
2022/04/30 06:50:27;;;;;;;;;23.00;21.00;;;;;20.97;29.22;99532.25;6314827;27;96476;-75
2022/04/30 06:57:11;;;;;;;;;18.40;18.00;;;;;21.49;26.85;99534.72;6286472;27;97711;-75
2022/04/30 07:03:37;;;;;;;;;17.60;13.80;;;;;22.14;25.76;99525.47;6292867;27;98843;-74
2022/04/30 07:06:42;;;;;;;;;15.60;14.60;;;;;22.16;23.91;99531.50;6311105;27;97806;-75
2022/04/30 07:09:46;;;;;;;;;16.60;14.00;;;;;22.10;23.90;99526.31;6308210;27;96541;-76
2022/04/30 07:12:50;;;;;;;;;14.80;14.00;;;;;22.14;24.26;99516.44;6293222;27;96690;-74
2022/04/30 07:15:53;;;;;;;;;13.20;12.00;;;;;22.22;23.66;99527.66;6308624;27;96978;-75
2022/04/30 07:18:56;;;;;;;;;15.00;14.00;;;;;22.38;24.14;99529.19;6309086;27;97558;-74
2022/04/30 07:22:02;;;;;;;;;16.00;14.40;;;;;22.45;23.08;99526.97;6289984;27;98536;-74
2022/04/30 07:25:09;;;;;;;;;17.40;15.60;;;;;22.47;23.18;99526.69;6280751;27;97882;-74
2022/04/30 07:28:13;;;;;;;;;13.60;12.60;;;;;22.34;22.52;99519.03;6268402;27;97902;-75
2022/04/30 07:31:16;;;;;;;;;15.00;13.60;;;;;22.59;23.77;99526.31;6290341;27;97372;-75
2022/04/30 07:34:20;;;;;;;;;17.00;14.40;;;;;22.81;24.00;99526.75;6295719;27;96786;-75
2022/04/30 07:37:24;;;;;;;;;14.25;13.00;;;;;23.16;24.19;99531.16;6295160;27;98550;-74
2022/04/30 07:40:28;;;;;;;;;18.00;15.60;;;;;23.42;23.35;99524.28;6290516;27;99999;-74
2022/04/30 07:43:31;;;;;;;;;15.00;13.40;;;;;23.48;23.70;99514.09;6278383;27;97032;-74
2022/04/30 07:46:35;;;;;;;;;18.00;15.20;;;;;23.68;23.00;99522.97;6291958;27;96574;-74
2022/04/30 07:49:38;;;;;;;;;18.00;17.00;;;;;23.71;22.91;99521.53;6278249;27;97300;-74
2022/04/30 07:52:43;;;;;;;;;19.00;17.50;;;;;23.72;22.63;99512.19;6310987;27;96395;-74
2022/04/30 07:55:46;;;;;;;;;18.60;16.40;;;;;23.80;22.49;99506.00;6290357;27;96639;-74
2022/04/30 07:58:54;;;;;;;;;18.00;16.00;;;;;23.72;22.32;99517.69;6314309;27;96696;-74
2022/04/30 08:01:57;;;;;;;;;16.40;14.40;;;;;23.75;22.93;99498.63;6314549;27;96981;-74
2022/04/30 08:05:02;;;;;;;;;15.00;13.60;;;;;23.99;22.36;99525.38;6314639;27;98130;-74
2022/04/30 08:08:07;;;;;;;;;14.00;13.00;;;;;24.21;23.12;99514.63;6314237;27;97097;-74
2022/04/30 08:11:12;;;;;;;;;14.60;13.60;;;;;24.17;22.88;99488.78;6309847;27;97179;-75
2022/04/30 08:14:16;;;;;;;;;14.00;13.00;;;;;24.66;22.57;99510.41;6287150;27;97327;-74
2022/04/30 08:17:19;;;;;;;;;15.00;14.00;;;;;24.56;21.32;99510.56;6309157;27;96974;-74
2022/04/30 08:20:23;;;;;;;;;18.40;12.00;;;;;24.59;21.47;99521.78;6309479;27;96960;-74
2022/04/30 08:23:28;;;;;;;;;17.40;13.00;;;;;24.63;21.77;99516.50;6293924;27;96727;-74
2022/04/30 08:26:31;;;;;;;;;15.00;13.00;;;;;24.80;21.92;99530.59;6288329;27;97453;-74
2022/04/30 08:29:35;;;;;;;;;12.80;10.80;;;;;24.94;22.38;99530.69;6288528;27;98444;-74
2022/04/30 08:32:38;;;;;;;;;13.00;11.00;;;;;25.09;21.43;99527.66;6290731;27;96771;-74
2022/04/30 08:35:41;;;;;;;;;18.00;14.00;;;;;25.23;20.79;99522.19;6310513;27;96644;-74
2022/04/30 08:38:46;;;;;;;;;13.60;12.40;;;;;25.16;20.32;99521.78;6308242;27;97762;-75
2022/04/30 08:41:50;;;;;;;;;13.50;12.50;;;;;24.97;21.47;99528.13;6311052;27;96678;-74
2022/04/30 08:44:55;;;;;;;;;12.40;11.20;;;;;24.98;22.24;99504.94;6307017;27;97557;-75
2022/04/30 08:47:58;;;;;;;;;12.00;12.00;;;;;25.25;21.78;99519.97;6313169;27;97621;-76
2022/04/30 08:51:02;;;;;;;;;16.00;14.00;;;;;25.55;22.01;99504.81;6283384;27;97082;-75
2022/04/30 08:54:08;;;;;;;;;12.00;11.00;;;;;26.04;20.24;99515.97;6305456;27;96583;-75
2022/04/30 08:57:12;;;;;;;;;13.50;12.50;;;;;26.44;20.32;99513.50;6270446;27;99992;-76
2022/04/30 09:00:16;;;;;;;;;14.00;10.00;;;;;26.43;18.47;99509.09;6306800;27;97213;-76
2022/04/30 09:03:20;;;;;;;;;11.00;10.60;;;;;26.18;19.17;99507.66;6292033;27;98326;-76
2022/04/30 09:06:26;;;;;;;;;12.20;12.00;;;;;26.09;19.93;99499.28;6306974;27;97949;-74
2022/04/30 09:09:32;;;;;;;;;11.00;11.00;;;;;25.84;20.36;99475.78;6275809;27;97211;-75
2022/04/30 09:12:35;;;;;;;;;11.00;10.60;;;;;26.18;19.39;99497.44;6287886;27;99772;-74
2022/04/30 09:15:40;;;;;;;;;10.60;9.00;;;;;26.30;18.78;99492.22;6293780;27;96847;-77
2022/04/30 09:18:44;;;;;;;;;13.00;12.50;;;;;26.42;19.98;99480.63;6290712;27;96706;-74
2022/04/30 09:21:49;;;;;;;;;11.60;10.00;;;;;26.25;19.63;99480.44;6292466;27;96984;-76
2022/04/30 09:24:53;;;;;;;;;12.00;11.00;;;;;26.34;19.21;99484.09;6291282;27;96965;-76
2022/04/30 09:28:24;;;;;;;;;11.00;10.00;;;;;26.41;19.16;99478.97;6272144;27;96537;-75
2022/04/30 09:31:27;;;;;;;;;11.00;10.00;;;;;26.53;20.22;99478.44;6306563;27;96838;-75
2022/04/30 09:38:02;;;;;;;;;10.40;9.40;;;;;26.78;18.47;99475.03;6312961;27;96309;-76
2022/04/30 09:41:09;;;;;;;;;11.00;9.25;;;;;26.71;18.62;99478.25;6288981;27;97904;-75
2022/04/30 09:44:16;;;;;;;;;10.60;10.60;;;;;26.83;19.23;99468.59;6305992;27;97793;-75
2022/04/30 09:47:21;;;;;;;;;11.00;10.00;;;;;26.85;18.46;99461.59;6294925;27;96573;-75
2022/04/30 09:53:57;;;;;;;;;9.50;8.50;;;;;27.02;19.16;99464.53;6273626;27;96717;-75
2022/04/30 09:57:04;;;;;;;;;8.00;8.00;;;;;27.11;18.88;99467.34;6289707;27;99064;-74
2022/04/30 10:00:09;;;;;;;;;11.00;10.00;;;;;27.15;19.04;99460.84;6316359;27;97450;-75
2022/04/30 10:03:17;;;;;;;;;10.75;9.75;;;;;27.16;17.83;99456.13;6311927;27;96865;-75
2022/04/30 10:06:20;;;;;;;;;11.20;9.20;;;;;27.17;18.54;99458.56;6295730;27;99758;-76
2022/04/30 10:09:27;;;;;;;;;10.60;9.60;;;;;27.45;18.81;99455.63;6296808;27;97589;-76
2022/04/30 10:12:38;;;;;;;;;9.00;8.00;;;;;27.72;17.80;99440.75;6315811;27;97589;-75
2022/04/30 10:15:51;;;;;;;;;10.60;8.00;;;;;28.00;17.48;99445.72;6307191;27;97061;-75
2022/04/30 10:19:10;;;;;;;;;10.00;9.00;;;;;28.10;17.45;99439.03;6315909;27;97968;-76
2022/04/30 10:22:15;;;;;;;;;9.00;8.00;;;;;28.50;17.96;99437.00;6289091;27;96515;-76
2022/04/30 10:25:30;;;;;;;;;8.00;7.00;;;;;28.85;16.11;99437.81;6296228;27;96491;-76
2022/04/30 10:28:35;;;;;;;;;7.00;6.00;;;;;28.83;15.80;99429.81;6291342;27;96265;-76
2022/04/30 10:31:47;;;;;;;;;7.00;6.00;;;;;28.92;16.81;99432.59;6297234;27;96805;-75
2022/04/30 10:34:52;;;;;;;;;8.00;7.00;;;;;28.78;15.90;99395.88;6298301;27;98178;-76
2022/04/30 10:38:07;;;;;;;;;7.00;7.00;;;;;28.34;16.32;99411.72;6297906;27;97037;-76
2022/04/30 10:41:12;;;;;;;;;8.00;7.00;;;;;27.62;17.07;99410.56;6315738;27;96761;-74
2022/04/30 10:44:28;;;;;;;;;8.00;7.40;;;;;28.05;18.53;99419.00;6292330;27;96924;-76
2022/04/30 10:47:31;;;;;;;;;8.00;7.80;;;;;28.61;17.24;99412.50;6310108;27;96649;-76
2022/04/30 10:50:35;;;;;;;;;8.00;8.00;;;;;28.96;17.09;99413.31;6296839;27;97403;-76
2022/04/30 10:53:41;;;;;;;;;9.60;8.00;;;;;29.34;16.46;99414.19;6281407;27;98538;-76
2022/04/30 10:56:46;;;;;;;;;10.00;9.00;;;;;29.65;16.63;99397.22;6277106;27;98014;-75
2022/04/30 11:00:02;;;;;;;;;10.40;8.40;;;;;29.97;15.47;99402.09;6288421;27;97494;-76
2022/04/30 11:03:12;;;;;;;;;9.20;8.80;;;;;30.15;16.18;99400.03;6263884;27;97363;-76
2022/04/30 11:06:20;;;;;;;;;8.25;8.00;;;;;29.69;15.22;99389.84;6296646;27;97446;-75
2022/04/30 11:09:23;;;;;;;;;8.40;7.60;;;;;29.41;16.53;99358.13;6279184;27;98524;-75
2022/04/30 11:12:31;;;;;;;;;9.00;8.00;;;;;28.63;16.32;99397.19;6273818;27;100148;-75
2022/04/30 11:15:36;;;;;;;;;10.00;9.00;;;;;28.32;15.40;99391.00;6302399;27;96869;-75
2022/04/30 11:18:39;;;;;;;;;9.75;9.00;;;;;27.83;16.25;99393.03;6284472;27;98602;-75
2022/04/30 11:21:44;;;;;;;;;10.75;10.00;;;;;27.49;16.39;99384.66;6314894;27;97082;-75
2022/04/30 11:24:48;;;;;;;;;9.25;9.25;;;;;27.15;17.08;99385.28;6278615;27;96650;-76
2022/04/30 11:27:58;;;;;;;;;12.00;11.00;;;;;26.99;16.95;99382.13;6311199;27;97091;-75
2022/04/30 11:31:03;;;;;;;;;11.25;10.25;;;;;26.85;17.52;99362.00;6290598;27;97391;-75
2022/04/30 11:34:11;;;;;;;;;9.40;8.00;;;;;26.96;17.34;99382.75;6276177;27;98095;-76
2022/04/30 11:37:14;;;;;;;;;9.80;9.00;;;;;27.07;18.33;99372.25;6296300;27;96381;-75
2022/04/30 11:40:22;;;;;;;;;10.00;9.00;;;;;27.34;17.80;99377.56;6286541;27;96851;-75
2022/04/30 11:43:25;;;;;;;;;11.00;10.00;;;;;27.57;16.99;99367.22;6305547;27;97430;-75
2022/04/30 11:46:30;;;;;;;;;10.40;9.60;;;;;27.68;17.39;99371.34;6314530;27;97463;-76
2022/04/30 11:49:33;;;;;;;;;9.00;8.33;;;;;27.74;17.35;99363.69;6314291;27;96947;-76
2022/04/30 11:52:41;;;;;;;;;11.00;10.00;;;;;27.90;17.51;99353.78;6298783;27;96472;-75
2022/04/30 11:55:45;;;;;;;;;10.00;10.00;;;;;28.02;17.45;99354.75;6314666;27;96811;-75
2022/04/30 11:58:48;;;;;;;;;9.00;8.50;;;;;28.09;16.84;99347.91;6295776;27;97957;-76
2022/04/30 12:01:53;;;;;;;;;10.00;9.00;;;;;28.14;16.89;99356.09;6294825;27;97038;-74
2022/04/30 12:05:01;;;;;;;;;9.40;9.00;;;;;28.06;16.65;99341.03;6258649;27;100335;-74
2022/04/30 12:08:12;;;;;;;;;7.75;7.00;;;;;27.83;17.03;99336.81;6288621;27;96195;-76
2022/04/30 12:11:16;;;;;;;;;12.00;12.00;;;;;27.88;16.88;99339.41;6288707;27;96389;-74
2022/04/30 12:14:20;;;;;;;;;10.60;9.00;;;;;27.98;17.24;99333.56;6270440;27;97383;-75
2022/04/30 12:17:29;;;;;;;;;9.00;9.00;;;;;28.08;17.59;99329.66;6293821;27;96604;-75
2022/04/30 12:27:23;;;;;;;;;9.20;9.00;;;;;27.67;17.72;99322.59;6302224;27;96644;-74
2022/04/30 12:30:28;;;;;;;;;10.50;9.00;;;;;27.56;16.99;99330.41;6310992;27;97492;-75
2022/04/30 12:33:45;;;;;;;;;11.00;10.00;;;;;27.39;17.15;99323.97;6285762;27;97367;-74
2022/04/30 12:36:53;;;;;;;;;10.40;9.80;;;;;27.41;17.90;99325.31;6269476;27;99973;-74
2022/04/30 12:39:56;;;;;;;;;10.75;9.75;;;;;27.46;18.59;99325.16;6269187;27;97782;-74
2022/04/30 12:43:00;;;;;;;;;11.00;9.33;;;;;27.35;17.15;99318.28;6287754;27;97566;-76
2022/04/30 12:46:18;;;;;;;;;8.00;8.00;;;;;27.31;18.29;99316.47;6289660;27;97175;-75
2022/04/30 12:49:23;;;;;;;;;8.00;8.00;;;;;27.51;17.67;99321.44;6298080;27;97513;-75
2022/04/30 12:52:43;;;;;;;;;9.20;8.00;;;;;27.57;17.72;99314.59;6285450;27;98818;-74
2022/04/30 12:55:47;;;;;;;;;10.00;9.00;;;;;27.50;16.85;99312.31;6304769;27;97409;-75
2022/04/30 12:59:05;;;;;;;;;11.00;9.00;;;;;27.35;17.28;99315.50;6270766;27;96783;-75
2022/04/30 13:02:09;;;;;;;;;8.00;7.00;;;;;27.26;16.68;99313.84;6293238;27;99976;-75
2022/04/30 13:05:15;;;;;;;;;11.00;10.00;;;;;27.13;17.69;99310.88;6285587;27;97584;-75
2022/04/30 13:08:18;;;;;;;;;7.80;7.20;;;;;27.06;17.32;99312.47;6269911;27;98598;-76
2022/04/30 13:14:50;;;;;;;;;9.00;9.00;;;;;26.80;18.00;99301.28;6285356;27;98785;-75
2022/04/30 13:17:56;;;;;;;;;9.80;8.40;;;;;26.66;18.15;99304.13;6293321;27;98126;-76
2022/04/30 13:21:02;;;;;;;;;9.00;9.00;;;;;26.49;17.73;99290.19;6272777;27;97778;-75
2022/04/30 13:24:07;;;;;;;;;10.00;9.00;;;;;26.36;18.43;99296.63;6291074;27;96447;-77
2022/04/30 13:27:10;;;;;;;;;9.20;8.20;;;;;26.28;18.02;99294.63;6297584;27;96521;-75
2022/04/30 13:30:15;;;;;;;;;10.40;9.00;;;;;26.09;19.07;99277.41;6316641;27;97898;-75
2022/04/30 13:33:19;;;;;;;;;9.20;8.80;;;;;26.10;18.78;99279.81;6298690;27;97336;-74
2022/04/30 13:36:23;;;;;;;;;9.00;8.00;;;;;26.05;19.47;99276.38;6288831;27;96785;-75
2022/04/30 13:39:26;;;;;;;;;9.40;9.00;;;;;25.98;19.25;99279.59;6300458;27;97730;-75
2022/04/30 13:42:30;;;;;;;;;11.00;10.00;;;;;25.83;19.45;99272.50;6306048;27;97370;-75
2022/04/30 13:45:33;;;;;;;;;10.00;9.00;;;;;25.71;19.78;99272.22;6296149;27;98812;-75
2022/04/30 13:48:37;;;;;;;;;10.80;9.00;;;;;25.69;19.30;99271.72;6296436;27;96846;-75
2022/04/30 13:51:42;;;;;;;;;9.00;9.00;;;;;25.57;20.06;99262.31;6315225;27;97377;-75
2022/04/30 13:54:45;;;;;;;;;10.00;9.20;;;;;25.45;20.10;99269.19;6295272;27;96497;-75
2022/04/30 13:57:49;;;;;;;;;10.60;9.60;;;;;25.32;20.12;99258.16;6293962;27;98558;-74
2022/04/30 14:00:52;;;;;;;;;10.00;10.00;;;;;25.27;20.40;99259.09;6294645;27;96738;-75
2022/04/30 14:03:56;;;;;;;;;11.80;8.80;;;;;25.13;19.96;99257.47;6312733;27;97577;-75
2022/04/30 14:07:08;;;;;;;;;10.00;9.00;;;;;25.01;20.06;99256.06;6309780;27;96695;-75
2022/04/30 14:10:11;;;;;;;;;9.25;8.25;;;;;24.86;20.43;99255.53;6295180;27;96659;-75
2022/04/30 14:16:41;;;;;;;;;10.00;10.00;;;;;24.69;20.57;99249.78;6306929;27;97194;-75
2022/04/30 14:19:45;;;;;;;;;9.25;8.50;;;;;24.64;20.71;99253.47;6313964;27;97530;-75
2022/04/30 14:22:51;;;;;;;;;10.00;10.00;;;;;24.71;21.05;99248.38;6303478;27;97406;-76
2022/04/30 14:25:55;;;;;;;;;10.00;9.00;;;;;24.73;20.89;99250.84;6277544;27;98759;-75
2022/04/30 14:28:59;;;;;;;;;11.00;10.00;;;;;24.72;20.94;99250.00;6304869;27;97550;-74
2022/04/30 14:32:03;;;;;;;;;10.00;9.00;;;;;24.94;21.00;99252.06;6293084;27;98448;-74
2022/04/30 14:35:08;;;;;;;;;9.00;8.00;;;;;25.07;19.68;99242.97;6314541;27;97762;-75
2022/04/30 14:38:12;;;;;;;;;8.60;7.60;;;;;25.37;20.33;99244.25;6303816;27;97826;-75
2022/04/30 14:41:16;;;;;;;;;10.40;9.40;;;;;25.69;19.88;99246.88;6304195;27;97037;-74
2022/04/30 14:44:19;;;;;;;;;9.00;9.00;;;;;26.06;20.18;99250.38;6286940;27;98053;-74
2022/04/30 14:47:23;;;;;;;;;9.60;9.60;;;;;26.38;19.46;99241.84;6271436;27;98441;-74
2022/04/30 14:50:37;;;;;;;;;11.00;10.00;;;;;26.64;19.98;99239.19;6286420;27;98809;-75
2022/04/30 14:53:41;;;;;;;;;11.60;10.40;;;;;26.84;19.67;99246.09;6278512;27;99057;-75
2022/04/30 14:56:46;;;;;;;;;11.40;11.00;;;;;26.99;19.21;99249.28;6291999;27;96870;-75
2022/04/30 14:59:50;;;;;;;;;10.00;9.00;;;;;26.99;18.49;99245.69;6281415;27;97518;-74
2022/04/30 15:02:53;;;;;;;;;9.00;9.00;;;;;26.77;18.79;99218.94;6305608;27;98385;-75
2022/04/30 15:05:57;;;;;;;;;10.00;9.00;;;;;26.64;19.11;99206.81;6301808;27;96734;-75
2022/04/30 15:09:01;;;;;;;;;11.00;10.00;;;;;26.69;19.09;99233.53;6292627;27;96720;-75